sensor_id;sensor_type;location;lat;lon;timestamp;temperature;humidity
6178;DHT22;3122;48.208;11.174;2022-09-28T00:00:20;8.30;1.00
6178;DHT22;3122;48.208;11.174;2022-09-28T00:05:21;8.20;1.00
6178;DHT22;3122;48.208;11.174;2022-09-28T00:10:22;8.20;1.00
6178;DHT22;3122;48.208;11.174;2022-09-28T00:15:23;8.20;1.00
6178;DHT22;3122;48.208;11.174;2022-09-28T00:20:24;8.20;1.00
6178;DHT22;3122;48.208;11.174;2022-09-28T00:25:24;8.20;1.00
6178;DHT22;3122;48.208;11.174;2022-09-28T00:30:25;8.20;1.00
6178;DHT22;3122;48.208;11.174;2022-09-28T00:35:26;8.20;1.00
6178;DHT22;3122;48.208;11.174;2022-09-28T00:40:26;8.20;1.00
6178;DHT22;3122;48.208;11.174;2022-09-28T00:45:27;8.20;1.00
6178;DHT22;3122;48.208;11.174;2022-09-28T00:50:32;8.20;1.00
6178;DHT22;3122;48.208;11.174;2022-09-28T00:55:55;8.20;1.00
6178;DHT22;3122;48.208;11.174;2022-09-28T01:00:58;8.20;1.00
6178;DHT22;3122;48.208;11.174;2022-09-28T01:06:00;8.20;1.00
6178;DHT22;3122;48.208;11.174;2022-09-28T01:11:01;8.20;1.00
6178;DHT22;3122;48.208;11.174;2022-09-28T01:16:31;8.20;1.00
6178;DHT22;3122;48.208;11.174;2022-09-28T01:21:52;8.30;1.00
6178;DHT22;3122;48.208;11.174;2022-09-28T01:27:13;8.30;1.00
6178;DHT22;3122;48.208;11.174;2022-09-28T01:32:40;8.30;1.00
6178;DHT22;3122;48.208;11.174;2022-09-28T01:38:04;8.20;1.00
6178;DHT22;3122;48.208;11.174;2022-09-28T01:43:10;8.20;1.00
6178;DHT22;3122;48.208;11.174;2022-09-28T01:48:18;8.20;1.00
6178;DHT22;3122;48.208;11.174;2022-09-28T01:53:27;8.20;1.00
6178;DHT22;3122;48.208;11.174;2022-09-28T01:58:37;8.10;1.00
6178;DHT22;3122;48.208;11.174;2022-09-28T02:04:10;8.10;1.00
6178;DHT22;3122;48.208;11.174;2022-09-28T02:09:37;8.00;1.00
6178;DHT22;3122;48.208;11.174;2022-09-28T02:14:41;7.90;1.00
6178;DHT22;3122;48.208;11.174;2022-09-28T02:19:44;7.80;1.00
6178;DHT22;3122;48.208;11.174;2022-09-28T02:24:55;7.70;1.00
6178;DHT22;3122;48.208;11.174;2022-09-28T02:29:57;7.70;1.00
6178;DHT22;3122;48.208;11.174;2022-09-28T02:34:58;7.70;1.00
6178;DHT22;3122;48.208;11.174;2022-09-28T02:39:58;7.60;1.00
6178;DHT22;3122;48.208;11.174;2022-09-28T02:50:55;7.60;1.00
6178;DHT22;3122;48.208;11.174;2022-09-28T03:01:52;7.60;1.00
6178;DHT22;3122;48.208;11.174;2022-09-28T03:07:17;7.60;1.00
6178;DHT22;3122;48.208;11.174;2022-09-28T03:12:22;7.50;1.00
6178;DHT22;3122;48.208;11.174;2022-09-28T03:17:23;7.40;1.00
6178;DHT22;3122;48.208;11.174;2022-09-28T03:22:24;7.30;1.00
6178;DHT22;3122;48.208;11.174;2022-09-28T03:27:25;7.30;1.00
6178;DHT22;3122;48.208;11.174;2022-09-28T03:32:25;7.30;1.00
6178;DHT22;3122;48.208;11.174;2022-09-28T03:37:26;7.20;1.00
6178;DHT22;3122;48.208;11.174;2022-09-28T03:42:27;7.30;1.00
6178;DHT22;3122;48.208;11.174;2022-09-28T03:47:28;7.40;1.00
6178;DHT22;3122;48.208;11.174;2022-09-28T03:52:28;7.50;1.00
6178;DHT22;3122;48.208;11.174;2022-09-28T03:57:29;7.50;1.00
6178;DHT22;3122;48.208;11.174;2022-09-28T04:02:29;7.60;1.00
6178;DHT22;3122;48.208;11.174;2022-09-28T04:07:30;7.70;1.00
6178;DHT22;3122;48.208;11.174;2022-09-28T04:12:30;7.70;1.00
6178;DHT22;3122;48.208;11.174;2022-09-28T04:17:31;7.80;1.00
6178;DHT22;3122;48.208;11.174;2022-09-28T04:22:31;7.80;1.00
6178;DHT22;3122;48.208;11.174;2022-09-28T04:27:32;7.90;1.00
6178;DHT22;3122;48.208;11.174;2022-09-28T04:32:51;8.00;1.00
6178;DHT22;3122;48.208;11.174;2022-09-28T04:37:52;8.20;1.00
6178;DHT22;3122;48.208;11.174;2022-09-28T04:42:54;8.30;1.00
6178;DHT22;3122;48.208;11.174;2022-09-28T04:47:54;8.30;1.00
6178;DHT22;3122;48.208;11.174;2022-09-28T04:52:55;8.40;1.00
6178;DHT22;3122;48.208;11.174;2022-09-28T04:57:56;8.30;1.00
6178;DHT22;3122;48.208;11.174;2022-09-28T05:02:56;8.30;1.00
6178;DHT22;3122;48.208;11.174;2022-09-28T05:07:57;8.20;1.00
6178;DHT22;3122;48.208;11.174;2022-09-28T05:12:58;8.10;1.00
6178;DHT22;3122;48.208;11.174;2022-09-28T05:18:00;8.00;1.00
6178;DHT22;3122;48.208;11.174;2022-09-28T05:23:01;8.00;1.00
6178;DHT22;3122;48.208;11.174;2022-09-28T05:28:01;8.00;1.00
6178;DHT22;3122;48.208;11.174;2022-09-28T05:33:03;8.10;1.00
6178;DHT22;3122;48.208;11.174;2022-09-28T05:38:04;8.10;1.00
6178;DHT22;3122;48.208;11.174;2022-09-28T05:43:04;8.20;1.00
6178;DHT22;3122;48.208;11.174;2022-09-28T05:48:05;8.20;1.00
6178;DHT22;3122;48.208;11.174;2022-09-28T05:53:07;8.20;1.00
6178;DHT22;3122;48.208;11.174;2022-09-28T05:58:09;8.20;1.00
6178;DHT22;3122;48.208;11.174;2022-09-28T06:03:12;8.30;1.00
6178;DHT22;3122;48.208;11.174;2022-09-28T06:08:12;8.40;1.00
6178;DHT22;3122;48.208;11.174;2022-09-28T06:13:13;8.30;1.00
6178;DHT22;3122;48.208;11.174;2022-09-28T06:18:13;8.40;1.00
6178;DHT22;3122;48.208;11.174;2022-09-28T06:23:14;8.40;1.00
6178;DHT22;3122;48.208;11.174;2022-09-28T06:28:15;8.40;1.00
6178;DHT22;3122;48.208;11.174;2022-09-28T06:33:16;8.50;1.00
6178;DHT22;3122;48.208;11.174;2022-09-28T06:38:17;8.50;1.00
6178;DHT22;3122;48.208;11.174;2022-09-28T06:43:17;8.60;1.00
6178;DHT22;3122;48.208;11.174;2022-09-28T06:48:18;8.60;1.00
6178;DHT22;3122;48.208;11.174;2022-09-28T06:53:19;8.60;1.00
6178;DHT22;3122;48.208;11.174;2022-09-28T06:58:20;8.60;1.00
6178;DHT22;3122;48.208;11.174;2022-09-28T07:03:22;8.60;1.00
6178;DHT22;3122;48.208;11.174;2022-09-28T07:08:24;8.70;1.00
6178;DHT22;3122;48.208;11.174;2022-09-28T07:13:27;8.60;1.00
6178;DHT22;3122;48.208;11.174;2022-09-28T07:18:28;8.60;1.00
6178;DHT22;3122;48.208;11.174;2022-09-28T07:23:29;8.60;1.00
6178;DHT22;3122;48.208;11.174;2022-09-28T07:28:30;8.50;1.00
6178;DHT22;3122;48.208;11.174;2022-09-28T07:33:30;8.60;1.00
6178;DHT22;3122;48.208;11.174;2022-09-28T07:38:32;8.70;1.00
6178;DHT22;3122;48.208;11.174;2022-09-28T07:43:33;8.70;1.00
6178;DHT22;3122;48.208;11.174;2022-09-28T07:48:33;8.80;1.00
6178;DHT22;3122;48.208;11.174;2022-09-28T07:53:37;8.90;1.00
6178;DHT22;3122;48.208;11.174;2022-09-28T07:58:38;9.10;1.00
6178;DHT22;3122;48.208;11.174;2022-09-28T08:03:39;9.20;1.00
6178;DHT22;3122;48.208;11.174;2022-09-28T08:08:40;9.20;1.00
6178;DHT22;3122;48.208;11.174;2022-09-28T08:13:44;9.20;1.00
6178;DHT22;3122;48.208;11.174;2022-09-28T08:18:47;9.20;1.00
6178;DHT22;3122;48.208;11.174;2022-09-28T08:23:48;9.20;1.00
6178;DHT22;3122;48.208;11.174;2022-09-28T08:28:49;9.20;1.00
6178;DHT22;3122;48.208;11.174;2022-09-28T08:33:50;9.20;1.00
6178;DHT22;3122;48.208;11.174;2022-09-28T08:38:53;9.00;1.00
6178;DHT22;3122;48.208;11.174;2022-09-28T08:44:14;8.50;1.00
6178;DHT22;3122;48.208;11.174;2022-09-28T08:49:22;8.10;1.00
6178;DHT22;3122;48.208;11.174;2022-09-28T08:54:39;8.00;1.00
6178;DHT22;3122;48.208;11.174;2022-09-28T08:59:54;7.90;1.00
6178;DHT22;3122;48.208;11.174;2022-09-28T09:04:56;7.90;1.00
6178;DHT22;3122;48.208;11.174;2022-09-28T09:15:44;7.90;1.00
6178;DHT22;3122;48.208;11.174;2022-09-28T09:20:52;7.90;1.00
6178;DHT22;3122;48.208;11.174;2022-09-28T09:26:20;7.90;1.00
6178;DHT22;3122;48.208;11.174;2022-09-28T09:31:25;7.80;1.00
6178;DHT22;3122;48.208;11.174;2022-09-28T09:36:46;7.90;1.00
6178;DHT22;3122;48.208;11.174;2022-09-28T09:42:13;8.10;1.00
6178;DHT22;3122;48.208;11.174;2022-09-28T09:47:52;8.30;1.00
6178;DHT22;3122;48.208;11.174;2022-09-28T09:52:50;8.30;1.00
6178;DHT22;3122;48.208;11.174;2022-09-28T09:58:10;8.40;1.00
6178;DHT22;3122;48.208;11.174;2022-09-28T10:03:26;8.50;1.00
6178;DHT22;3122;48.208;11.174;2022-09-28T10:08:27;8.60;1.00
6178;DHT22;3122;48.208;11.174;2022-09-28T10:13:28;8.60;1.00
6178;DHT22;3122;48.208;11.174;2022-09-28T10:18:29;8.60;1.00
6178;DHT22;3122;48.208;11.174;2022-09-28T10:23:32;8.70;1.00
6178;DHT22;3122;48.208;11.174;2022-09-28T10:28:47;8.80;1.00
6178;DHT22;3122;48.208;11.174;2022-09-28T10:33:47;8.90;1.00
6178;DHT22;3122;48.208;11.174;2022-09-28T10:38:52;9.00;1.00
6178;DHT22;3122;48.208;11.174;2022-09-28T10:43:57;9.00;1.00
6178;DHT22;3122;48.208;11.174;2022-09-28T10:49:17;9.10;1.00
6178;DHT22;3122;48.208;11.174;2022-09-28T10:54:20;9.10;1.00
6178;DHT22;3122;48.208;11.174;2022-09-28T11:04:39;9.20;1.00
6178;DHT22;3122;48.208;11.174;2022-09-28T11:09:41;9.30;1.00
6178;DHT22;3122;48.208;11.174;2022-09-28T11:14:42;9.40;1.00
6178;DHT22;3122;48.208;11.174;2022-09-28T11:19:44;9.40;1.00
6178;DHT22;3122;48.208;11.174;2022-09-28T11:24:44;9.20;1.00
6178;DHT22;3122;48.208;11.174;2022-09-28T11:29:52;9.20;1.00
6178;DHT22;3122;48.208;11.174;2022-09-28T11:34:57;9.30;1.00
6178;DHT22;3122;48.208;11.174;2022-09-28T11:45:33;9.20;1.00
6178;DHT22;3122;48.208;11.174;2022-09-28T12:01:31;8.90;1.00
6178;DHT22;3122;48.208;11.174;2022-09-28T12:06:45;9.00;1.00
6178;DHT22;3122;48.208;11.174;2022-09-28T12:11:50;8.90;1.00
6178;DHT22;3122;48.208;11.174;2022-09-28T12:17:02;8.80;1.00
6178;DHT22;3122;48.208;11.174;2022-09-28T12:22:11;8.70;1.00
6178;DHT22;3122;48.208;11.174;2022-09-28T12:32:56;8.60;1.00
6178;DHT22;3122;48.208;11.174;2022-09-28T12:38:09;8.70;1.00
6178;DHT22;3122;48.208;11.174;2022-09-28T12:43:31;8.70;1.00
6178;DHT22;3122;48.208;11.174;2022-09-28T12:54:00;8.60;1.00
6178;DHT22;3122;48.208;11.174;2022-09-28T12:59:35;8.70;1.00
6178;DHT22;3122;48.208;11.174;2022-09-28T13:04:56;8.70;1.00
6178;DHT22;3122;48.208;11.174;2022-09-28T13:21:21;8.60;1.00
6178;DHT22;3122;48.208;11.174;2022-09-28T13:26:33;8.60;1.00
6178;DHT22;3122;48.208;11.174;2022-09-28T13:32:12;8.60;1.00
6178;DHT22;3122;48.208;11.174;2022-09-28T13:37:18;8.50;1.00
6178;DHT22;3122;48.208;11.174;2022-09-28T13:48:03;8.70;1.00
6178;DHT22;3122;48.208;11.174;2022-09-28T13:58:59;8.70;1.00
6178;DHT22;3122;48.208;11.174;2022-09-28T14:04:21;8.70;1.00
6178;DHT22;3122;48.208;11.174;2022-09-28T14:15:01;8.70;1.00
6178;DHT22;3122;48.208;11.174;2022-09-28T14:20:09;8.70;1.00
6178;DHT22;3122;48.208;11.174;2022-09-28T14:25:22;8.70;1.00
6178;DHT22;3122;48.208;11.174;2022-09-28T14:31:08;8.80;1.00
6178;DHT22;3122;48.208;11.174;2022-09-28T14:41:07;8.80;1.00
6178;DHT22;3122;48.208;11.174;2022-09-28T14:56:28;8.60;1.00
6178;DHT22;3122;48.208;11.174;2022-09-28T15:01:29;8.70;1.00
6178;DHT22;3122;48.208;11.174;2022-09-28T15:06:47;8.70;1.00
6178;DHT22;3122;48.208;11.174;2022-09-28T15:11:48;8.60;1.00
6178;DHT22;3122;48.208;11.174;2022-09-28T15:16:56;8.70;1.00
6178;DHT22;3122;48.208;11.174;2022-09-28T15:21:58;8.70;1.00
6178;DHT22;3122;48.208;11.174;2022-09-28T15:27:01;8.70;1.00
6178;DHT22;3122;48.208;11.174;2022-09-28T15:32:02;8.70;1.00
6178;DHT22;3122;48.208;11.174;2022-09-28T15:37:04;8.60;1.00
6178;DHT22;3122;48.208;11.174;2022-09-28T15:42:10;8.50;1.00
6178;DHT22;3122;48.208;11.174;2022-09-28T15:47:16;8.50;1.00
6178;DHT22;3122;48.208;11.174;2022-09-28T15:52:34;8.50;1.00
6178;DHT22;3122;48.208;11.174;2022-09-28T15:57:37;8.50;1.00
6178;DHT22;3122;48.208;11.174;2022-09-28T16:02:59;8.50;1.00
6178;DHT22;3122;48.208;11.174;2022-09-28T16:08:02;8.50;1.00
6178;DHT22;3122;48.208;11.174;2022-09-28T16:13:17;8.50;1.00
6178;DHT22;3122;48.208;11.174;2022-09-28T16:18:20;8.40;1.00
6178;DHT22;3122;48.208;11.174;2022-09-28T16:23:29;8.30;1.00
6178;DHT22;3122;48.208;11.174;2022-09-28T16:33:57;8.20;1.00
6178;DHT22;3122;48.208;11.174;2022-09-28T16:38:58;8.20;1.00
6178;DHT22;3122;48.208;11.174;2022-09-28T16:44:01;8.10;1.00
6178;DHT22;3122;48.208;11.174;2022-09-28T16:49:02;8.00;1.00
6178;DHT22;3122;48.208;11.174;2022-09-28T16:54:14;8.00;1.00
6178;DHT22;3122;48.208;11.174;2022-09-28T16:59:33;8.10;1.00
6178;DHT22;3122;48.208;11.174;2022-09-28T17:04:34;8.10;1.00
6178;DHT22;3122;48.208;11.174;2022-09-28T17:09:35;7.90;1.00
6178;DHT22;3122;48.208;11.174;2022-09-28T17:14:35;7.80;1.00
6178;DHT22;3122;48.208;11.174;2022-09-28T17:19:36;7.80;1.00
6178;DHT22;3122;48.208;11.174;2022-09-28T17:24:37;7.90;1.00
6178;DHT22;3122;48.208;11.174;2022-09-28T17:29:37;7.90;1.00
6178;DHT22;3122;48.208;11.174;2022-09-28T17:34:38;7.90;1.00
6178;DHT22;3122;48.208;11.174;2022-09-28T17:39:38;7.90;1.00
6178;DHT22;3122;48.208;11.174;2022-09-28T17:44:39;7.90;1.00
6178;DHT22;3122;48.208;11.174;2022-09-28T17:49:39;7.90;1.00
6178;DHT22;3122;48.208;11.174;2022-09-28T17:54:41;7.90;1.00
6178;DHT22;3122;48.208;11.174;2022-09-28T17:59:41;7.80;1.00
6178;DHT22;3122;48.208;11.174;2022-09-28T18:04:42;7.90;1.00
6178;DHT22;3122;48.208;11.174;2022-09-28T18:09:43;7.80;1.00
6178;DHT22;3122;48.208;11.174;2022-09-28T18:14:43;7.80;1.00
6178;DHT22;3122;48.208;11.174;2022-09-28T18:19:44;7.90;1.00
6178;DHT22;3122;48.208;11.174;2022-09-28T18:24:44;7.90;1.00
6178;DHT22;3122;48.208;11.174;2022-09-28T18:29:45;7.90;1.00
6178;DHT22;3122;48.208;11.174;2022-09-28T18:34:45;7.80;1.00
6178;DHT22;3122;48.208;11.174;2022-09-28T18:39:46;7.80;1.00
6178;DHT22;3122;48.208;11.174;2022-09-28T18:44:46;7.80;1.00
6178;DHT22;3122;48.208;11.174;2022-09-28T18:49:47;7.80;1.00
6178;DHT22;3122;48.208;11.174;2022-09-28T18:54:49;7.80;1.00
6178;DHT22;3122;48.208;11.174;2022-09-28T18:59:50;7.70;1.00
6178;DHT22;3122;48.208;11.174;2022-09-28T19:04:51;7.70;1.00
6178;DHT22;3122;48.208;11.174;2022-09-28T19:09:51;7.70;1.00
6178;DHT22;3122;48.208;11.174;2022-09-28T19:14:52;7.80;1.00
6178;DHT22;3122;48.208;11.174;2022-09-28T19:19:53;7.80;1.00
6178;DHT22;3122;48.208;11.174;2022-09-28T19:24:54;7.70;1.00
6178;DHT22;3122;48.208;11.174;2022-09-28T19:29:54;7.70;1.00
6178;DHT22;3122;48.208;11.174;2022-09-28T19:34:55;7.70;1.00
6178;DHT22;3122;48.208;11.174;2022-09-28T19:39:55;7.70;1.00
6178;DHT22;3122;48.208;11.174;2022-09-28T19:44:56;7.60;1.00
6178;DHT22;3122;48.208;11.174;2022-09-28T19:49:56;7.60;1.00
6178;DHT22;3122;48.208;11.174;2022-09-28T19:54:57;7.70;1.00
6178;DHT22;3122;48.208;11.174;2022-09-28T19:59:59;7.70;1.00
6178;DHT22;3122;48.208;11.174;2022-09-28T20:05:01;7.70;1.00
6178;DHT22;3122;48.208;11.174;2022-09-28T20:10:02;7.70;1.00
6178;DHT22;3122;48.208;11.174;2022-09-28T20:15:03;7.70;1.00
6178;DHT22;3122;48.208;11.174;2022-09-28T20:20:04;7.60;1.00
6178;DHT22;3122;48.208;11.174;2022-09-28T20:25:05;7.60;1.00
6178;DHT22;3122;48.208;11.174;2022-09-28T20:30:07;7.60;1.00
6178;DHT22;3122;48.208;11.174;2022-09-28T20:35:08;7.80;1.00
6178;DHT22;3122;48.208;11.174;2022-09-28T20:40:09;7.90;1.00
6178;DHT22;3122;48.208;11.174;2022-09-28T20:45:10;7.70;1.00
6178;DHT22;3122;48.208;11.174;2022-09-28T20:50:11;7.70;1.00
6178;DHT22;3122;48.208;11.174;2022-09-28T20:55:11;7.60;1.00
6178;DHT22;3122;48.208;11.174;2022-09-28T21:00:12;7.50;1.00
6178;DHT22;3122;48.208;11.174;2022-09-28T21:05:13;7.50;1.00
6178;DHT22;3122;48.208;11.174;2022-09-28T21:10:14;7.70;1.00
6178;DHT22;3122;48.208;11.174;2022-09-28T21:15:15;7.80;1.00
6178;DHT22;3122;48.208;11.174;2022-09-28T21:20:16;7.70;1.00
6178;DHT22;3122;48.208;11.174;2022-09-28T21:25:16;7.60;1.00
6178;DHT22;3122;48.208;11.174;2022-09-28T21:30:17;7.60;1.00
6178;DHT22;3122;48.208;11.174;2022-09-28T21:35:19;7.70;1.00
6178;DHT22;3122;48.208;11.174;2022-09-28T21:40:20;7.60;1.00
6178;DHT22;3122;48.208;11.174;2022-09-28T21:45:21;7.60;1.00
6178;DHT22;3122;48.208;11.174;2022-09-28T21:50:24;7.60;1.00
6178;DHT22;3122;48.208;11.174;2022-09-28T21:55:24;7.60;1.00
6178;DHT22;3122;48.208;11.174;2022-09-28T22:00:25;7.50;1.00
6178;DHT22;3122;48.208;11.174;2022-09-28T22:05:25;7.60;1.00
6178;DHT22;3122;48.208;11.174;2022-09-28T22:10:27;7.50;1.00
6178;DHT22;3122;48.208;11.174;2022-09-28T22:15:27;7.50;1.00
6178;DHT22;3122;48.208;11.174;2022-09-28T22:20:29;7.60;1.00
6178;DHT22;3122;48.208;11.174;2022-09-28T22:25:30;7.50;1.00
6178;DHT22;3122;48.208;11.174;2022-09-28T22:30:33;7.50;1.00
6178;DHT22;3122;48.208;11.174;2022-09-28T22:35:33;7.50;1.00
6178;DHT22;3122;48.208;11.174;2022-09-28T22:40:34;7.50;1.00
6178;DHT22;3122;48.208;11.174;2022-09-28T22:45:36;7.50;1.00
6178;DHT22;3122;48.208;11.174;2022-09-28T22:50:36;7.50;1.00
6178;DHT22;3122;48.208;11.174;2022-09-28T22:55:40;7.50;1.00
6178;DHT22;3122;48.208;11.174;2022-09-28T23:00:40;7.50;1.00
6178;DHT22;3122;48.208;11.174;2022-09-28T23:05:55;7.50;1.00
6178;DHT22;3122;48.208;11.174;2022-09-28T23:10:55;7.60;1.00
6178;DHT22;3122;48.208;11.174;2022-09-28T23:15:58;7.60;1.00
6178;DHT22;3122;48.208;11.174;2022-09-28T23:21:01;7.60;1.00
6178;DHT22;3122;48.208;11.174;2022-09-28T23:26:29;7.60;1.00
6178;DHT22;3122;48.208;11.174;2022-09-28T23:31:31;7.70;1.00
6178;DHT22;3122;48.208;11.174;2022-09-28T23:36:32;7.60;1.00
6178;DHT22;3122;48.208;11.174;2022-09-28T23:41:33;7.60;1.00
6178;DHT22;3122;48.208;11.174;2022-09-28T23:46:33;7.60;1.00
6178;DHT22;3122;48.208;11.174;2022-09-28T23:51:34;7.70;1.00
6178;DHT22;3122;48.208;11.174;2022-09-28T23:56:35;7.80;1.00
